Time;durP1;ratioP1;P1;durP2;ratioP2;P2;SDS_P1;SDS_P2;PMS_P1;PMS_P2;Temp;Humidity;BMP_temperature;BMP_pressure;BME280_temperature;BME280_humidity;BME280_pressure;Samples;Min_cycle;Max_cycle;Signal;HPM_P1;HPM_P2
2021/09/10 00:01:16;;;;;;;32.90;29.02;;;20.10;99.90;;;;;;5091628;28;20461;-60
2021/09/10 00:03:42;;;;;;;34.45;30.08;;;20.10;99.90;;;;;;5090646;28;20089;-60
2021/09/10 00:06:08;;;;;;;31.20;27.15;;;20.00;99.90;;;;;;5091723;28;20048;-60
2021/09/10 00:08:34;;;;;;;34.38;28.13;;;20.00;99.90;;;;;;5091635;28;20040;-60
2021/09/10 00:10:59;;;;;;;31.85;28.02;;;20.00;99.90;;;;;;5091673;28;20065;-60
2021/09/10 00:13:25;;;;;;;34.85;30.13;;;20.00;99.90;;;;;;5091537;28;20032;-61
2021/09/10 00:15:50;;;;;;;36.78;31.50;;;20.00;99.90;;;;;;5091490;28;20044;-60
2021/09/10 00:18:16;;;;;;;33.45;28.00;;;19.90;99.90;;;;;;5091791;28;20044;-60
2021/09/10 00:20:42;;;;;;;35.80;29.60;;;20.00;99.90;;;;;;5091652;28;20047;-60
2021/09/10 00:23:07;;;;;;;33.10;28.45;;;20.00;99.90;;;;;;5091314;28;20040;-60
2021/09/10 00:25:33;;;;;;;36.35;29.35;;;20.00;99.90;;;;;;5091547;28;20074;-60
2021/09/10 00:27:59;;;;;;;34.13;28.90;;;19.90;99.90;;;;;;5091543;28;20035;-61
2021/09/10 00:30:24;;;;;;;34.80;30.23;;;19.90;99.90;;;;;;5091465;28;20074;-61
2021/09/10 00:32:50;;;;;;;33.17;29.55;;;19.90;99.90;;;;;;5091368;28;20040;-60
2021/09/10 00:35:16;;;;;;;39.15;32.58;;;19.80;99.90;;;;;;5091536;28;20048;-60
2021/09/10 00:37:41;;;;;;;37.90;30.83;;;19.80;99.90;;;;;;5091395;28;20122;-60
2021/09/10 00:40:08;;;;;;;35.40;31.50;;;19.80;99.90;;;;;;5091448;28;20417;-61
2021/09/10 00:42:34;;;;;;;35.08;30.45;;;19.80;99.90;;;;;;5091265;28;20066;-61
2021/09/10 00:44:59;;;;;;;34.55;29.50;;;19.80;99.90;;;;;;5091200;28;20032;-61
2021/09/10 00:47:25;;;;;;;32.72;28.98;;;19.80;99.90;;;;;;5091291;28;20032;-60
2021/09/10 00:49:52;;;;;;;35.80;28.25;;;19.80;99.90;;;;;;5091367;28;20374;-60
2021/09/10 00:52:18;;;;;;;32.88;26.92;;;19.80;99.90;;;;;;5091328;28;20036;-61
2021/09/10 00:54:44;;;;;;;33.08;28.70;;;19.80;99.90;;;;;;5091188;28;20389;-60
2021/09/10 00:57:09;;;;;;;34.95;29.48;;;19.80;99.90;;;;;;5091165;28;20032;-60
2021/09/10 00:59:35;;;;;;;34.80;29.27;;;19.80;99.90;;;;;;5091685;28;20044;-60
2021/09/10 01:02:01;;;;;;;36.20;29.15;;;19.80;99.90;;;;;;5094839;28;20036;-61
2021/09/10 01:04:28;;;;;;;31.98;27.00;;;19.80;99.90;;;;;;5094552;28;20487;-61
2021/09/10 01:06:55;;;;;;;30.25;26.75;;;19.80;99.90;;;;;;5094796;28;20367;-61
2021/09/10 01:09:22;;;;;;;33.67;26.42;;;19.80;99.90;;;;;;5094534;28;20504;-60
2021/09/10 01:11:50;;;;;;;28.13;25.20;;;19.80;99.90;;;;;;5094628;28;20036;-61
2021/09/10 01:14:18;;;;;;;32.80;26.45;;;19.80;99.90;;;;;;5094401;28;20066;-60
2021/09/10 01:16:45;;;;;;;31.65;27.63;;;19.80;99.90;;;;;;5094602;28;20051;-61
2021/09/10 01:19:27;;;;;;;35.40;27.73;;;19.80;99.90;;;;;;5094595;28;20093;-60
2021/09/10 01:21:58;;;;;;;32.67;27.60;;;19.80;99.90;;;;;;5094811;28;20044;-61
2021/09/10 01:24:29;;;;;;;32.13;25.40;;;19.80;99.90;;;;;;5094164;28;20048;-61
2021/09/10 01:26:55;;;;;;;28.88;25.98;;;19.80;99.90;;;;;;5094272;28;20047;-61
2021/09/10 01:29:21;;;;;;;34.22;26.10;;;19.80;99.90;;;;;;5094343;28;20381;-61
2021/09/10 01:31:46;;;;;;;30.27;25.80;;;19.70;99.90;;;;;;5094342;28;20036;-61
2021/09/10 01:34:12;;;;;;;28.58;24.77;;;19.70;99.90;;;;;;5094096;28;20500;-60
2021/09/10 01:36:37;;;;;;;29.35;24.60;;;19.80;99.90;;;;;;5094089;28;20039;-61
2021/09/10 01:39:03;;;;;;;25.80;23.00;;;19.80;99.90;;;;;;5094024;28;20067;-60
2021/09/10 01:41:29;;;;;;;30.25;23.63;;;19.80;99.90;;;;;;5094230;28;20150;-60
2021/09/10 01:43:54;;;;;;;29.48;23.77;;;19.80;99.90;;;;;;5094358;28;20028;-61
2021/09/10 01:46:20;;;;;;;25.52;21.77;;;19.80;99.90;;;;;;5093734;28;20055;-60
2021/09/10 01:48:47;;;;;;;27.80;23.40;;;19.80;99.90;;;;;;5093905;28;20533;-61
2021/09/10 01:51:12;;;;;;;28.73;23.23;;;19.90;99.90;;;;;;5093896;28;20040;-60
2021/09/10 01:53:38;;;;;;;26.42;23.50;;;19.90;99.90;;;;;;5093695;28;20390;-61
2021/09/10 01:56:04;;;;;;;25.92;22.60;;;19.90;99.90;;;;;;5093573;28;20477;-61
2021/09/10 01:58:29;;;;;;;32.92;25.90;;;19.80;99.90;;;;;;5093842;28;20036;-60
2021/09/10 02:00:55;;;;;;;27.67;23.38;;;19.80;99.90;;;;;;5093515;28;20039;-60
2021/09/10 02:03:21;;;;;;;26.67;21.83;;;19.80;99.90;;;;;;5093693;28;20398;-60
2021/09/10 02:05:46;;;;;;;24.73;21.50;;;19.70;99.90;;;;;;5093429;28;20498;-60
2021/09/10 02:08:12;;;;;;;30.45;22.23;;;19.70;99.90;;;;;;5093461;28;20452;-61
2021/09/10 02:10:37;;;;;;;24.55;21.85;;;19.70;99.90;;;;;;5092990;28;20089;-61
2021/09/10 02:13:05;;;;;;;29.42;21.60;;;19.70;99.90;;;;;;5093506;28;20075;-60
2021/09/10 02:15:31;;;;;;;28.00;21.67;;;19.70;99.90;;;;;;5093485;28;20044;-61
2021/09/10 02:17:56;;;;;;;24.98;22.13;;;19.70;99.90;;;;;;5093308;28;20097;-60
2021/09/10 02:20:22;;;;;;;26.45;22.38;;;19.70;99.90;;;;;;5093270;28;20075;-60
2021/09/10 02:22:48;;;;;;;26.35;21.70;;;19.70;99.90;;;;;;5093529;28;20086;-61
2021/09/10 02:25:13;;;;;;;24.85;22.10;;;19.60;99.90;;;;;;5093191;28;20481;-60
2021/09/10 02:27:39;;;;;;;24.50;20.90;;;19.70;99.90;;;;;;5093273;28;20373;-60
2021/09/10 02:30:06;;;;;;;22.92;20.52;;;19.60;99.90;;;;;;5093031;28;20530;-60
2021/09/10 02:32:32;;;;;;;22.90;20.50;;;19.70;99.90;;;;;;5093147;28;20378;-61
2021/09/10 02:34:58;;;;;;;20.88;18.70;;;19.70;99.90;;;;;;5093003;28;20036;-60
2021/09/10 02:37:24;;;;;;;24.48;19.73;;;19.70;99.90;;;;;;5092927;28;20042;-61
2021/09/10 02:39:49;;;;;;;22.80;19.17;;;19.70;99.90;;;;;;5092771;28;20385;-61
2021/09/10 02:42:15;;;;;;;23.30;19.27;;;19.70;99.90;;;;;;5093020;28;20126;-60
2021/09/10 02:44:41;;;;;;;23.42;18.77;;;19.70;99.90;;;;;;5092719;28;20052;-60
2021/09/10 02:47:07;;;;;;;24.90;20.35;;;19.70;99.90;;;;;;5092829;28;20040;-61
2021/09/10 02:49:32;;;;;;;22.15;19.75;;;19.70;99.90;;;;;;5092683;28;20130;-61
2021/09/10 02:51:58;;;;;;;22.58;18.25;;;19.70;99.90;;;;;;5092578;28;20088;-60
2021/09/10 02:54:23;;;;;;;21.73;19.10;;;19.70;99.90;;;;;;5092578;28;20082;-61
2021/09/10 02:56:49;;;;;;;23.05;18.73;;;19.70;99.90;;;;;;5092397;28;20043;-60
2021/09/10 02:59:15;;;;;;;21.17;18.23;;;19.70;99.90;;;;;;5092615;28;20040;-61
2021/09/10 03:01:47;;;;;;;19.85;17.65;;;19.70;99.90;;;;;;5092566;28;20047;-60
2021/09/10 03:04:13;;;;;;;24.73;19.00;;;19.80;99.90;;;;;;5092328;28;20040;-60
2021/09/10 03:06:39;;;;;;;26.45;20.33;;;19.70;99.90;;;;;;5092312;28;20036;-60
2021/09/10 03:09:04;;;;;;;24.02;20.48;;;19.70;99.90;;;;;;5092582;28;20032;-60
2021/09/10 03:11:30;;;;;;;25.77;20.08;;;19.60;99.90;;;;;;5092454;28;20089;-61
2021/09/10 03:13:56;;;;;;;25.00;20.92;;;19.70;99.90;;;;;;5092378;28;20058;-60
2021/09/10 03:16:21;;;;;;;23.17;20.67;;;19.60;99.90;;;;;;5092239;28;20051;-60
2021/09/10 03:18:47;;;;;;;24.30;20.23;;;19.60;99.90;;;;;;5092575;28;20152;-61
2021/09/10 03:21:12;;;;;;;27.70;22.85;;;19.60;99.90;;;;;;5092112;28;20079;-60
2021/09/10 03:23:38;;;;;;;30.58;21.65;;;19.60;99.90;;;;;;5091526;28;20543;-60
2021/09/10 03:26:04;;;;;;;24.95;22.10;;;19.60;99.90;;;;;;5090726;28;20494;-61
2021/09/10 03:28:30;;;;;;;25.02;21.15;;;19.60;99.90;;;;;;5092305;28;20051;-61
2021/09/10 03:30:55;;;;;;;26.02;21.90;;;19.60;99.90;;;;;;5092031;28;20035;-61
2021/09/10 03:33:21;;;;;;;24.30;20.73;;;19.60;99.90;;;;;;5092016;28;20101;-60
2021/09/10 03:35:47;;;;;;;25.58;20.80;;;19.60;99.90;;;;;;5091926;28;20105;-60
2021/09/10 03:38:13;;;;;;;24.77;21.55;;;19.60;99.90;;;;;;5091859;28;20375;-60
2021/09/10 03:40:38;;;;;;;26.50;22.13;;;19.60;99.90;;;;;;5091818;28;20032;-60
2021/09/10 03:43:05;;;;;;;25.95;22.58;;;19.70;99.90;;;;;;5092017;28;20051;-60
2021/09/10 03:45:31;;;;;;;25.35;21.08;;;19.60;99.90;;;;;;5091797;28;20086;-61
2021/09/10 03:47:56;;;;;;;25.67;20.90;;;19.60;99.90;;;;;;5091872;28;20071;-60
2021/09/10 03:50:22;;;;;;;25.77;21.33;;;19.60;99.90;;;;;;5091783;28;20031;-61
2021/09/10 03:52:48;;;;;;;23.52;20.48;;;19.60;99.90;;;;;;5091945;28;20486;-61
2021/09/10 03:55:15;;;;;;;25.63;21.17;;;19.60;99.90;;;;;;5091827;28;20111;-61
2021/09/10 03:57:41;;;;;;;26.17;20.88;;;19.60;99.90;;;;;;5091855;28;20040;-60
2021/09/10 04:00:08;;;;;;;28.05;21.35;;;19.50;99.90;;;;;;5091753;28;20458;-61
2021/09/10 04:02:34;;;;;;;26.20;20.35;;;19.50;99.90;;;;;;5091682;28;20032;-61
2021/09/10 04:05:00;;;;;;;22.98;20.13;;;19.40;99.90;;;;;;5091706;28;20128;-61
2021/09/10 04:07:25;;;;;;;22.05;19.00;;;19.50;99.90;;;;;;5092223;28;20120;-60
2021/09/10 04:09:51;;;;;;;25.83;20.63;;;19.50;99.90;;;;;;5091765;28;20533;-61
2021/09/10 04:12:16;;;;;;;26.13;20.55;;;19.50;99.90;;;;;;5091687;28;20039;-61
2021/09/10 04:14:42;;;;;;;23.88;19.33;;;19.40;99.90;;;;;;5091555;28;20059;-61
2021/09/10 04:17:08;;;;;;;23.60;19.98;;;19.50;99.90;;;;;;5091526;28;20078;-61
2021/09/10 04:19:33;;;;;;;27.38;20.70;;;19.50;99.90;;;;;;5091409;28;20108;-61
2021/09/10 04:21:59;;;;;;;23.98;20.80;;;19.50;99.90;;;;;;5091720;28;20039;-60
2021/09/10 04:24:25;;;;;;;25.38;20.92;;;19.40;99.90;;;;;;5091343;28;20048;-60
2021/09/10 04:26:52;;;;;;;23.27;20.73;;;19.40;99.90;;;;;;5091539;28;20032;-60
2021/09/10 04:29:18;;;;;;;23.20;20.75;;;19.40;99.90;;;;;;5091552;28;20068;-61
2021/09/10 04:31:44;;;;;;;22.40;18.77;;;19.40;99.90;;;;;;5090766;28;20090;-61
2021/09/10 04:34:10;;;;;;;22.02;19.55;;;19.40;99.90;;;;;;5091848;28;20036;-60
2021/09/10 04:36:35;;;;;;;29.38;22.05;;;19.30;99.90;;;;;;5095353;28;20089;-61
2021/09/10 04:39:01;;;;;;;24.67;19.60;;;19.30;99.90;;;;;;5095397;28;20118;-60
2021/09/10 04:41:27;;;;;;;27.80;21.30;;;19.30;99.90;;;;;;5095206;28;20032;-60
2021/09/10 04:43:53;;;;;;;28.63;23.25;;;19.40;99.90;;;;;;5093792;28;20063;-60
2021/09/10 04:46:18;;;;;;;30.38;23.27;;;19.40;99.90;;;;;;5095043;28;20051;-61
2021/09/10 04:48:44;;;;;;;32.70;26.10;;;19.40;99.90;;;;;;5095274;28;20035;-60
2021/09/10 04:51:10;;;;;;;28.38;23.92;;;19.40;99.90;;;;;;5095233;28;20134;-60
2021/09/10 04:53:36;;;;;;;26.80;21.15;;;19.40;99.90;;;;;;5095165;28;20071;-60
2021/09/10 04:56:03;;;;;;;34.70;26.92;;;19.50;99.90;;;;;;5094808;28;20065;-61
2021/09/10 04:58:29;;;;;;;32.08;27.92;;;19.50;99.90;;;;;;5094934;28;20043;-61
2021/09/10 05:00:55;;;;;;;32.33;26.92;;;19.50;99.90;;;;;;5094665;28;20178;-60
2021/09/10 05:03:21;;;;;;;30.08;26.35;;;19.50;99.90;;;;;;5094758;28;20521;-61
2021/09/10 05:05:46;;;;;;;36.45;29.25;;;19.50;99.90;;;;;;5094503;28;20050;-61
2021/09/10 05:08:12;;;;;;;37.30;28.95;;;19.50;99.90;;;;;;5094837;28;20071;-60
2021/09/10 05:10:37;;;;;;;37.63;26.90;;;19.60;99.90;;;;;;5094740;28;20039;-61
2021/09/10 05:13:03;;;;;;;34.65;27.40;;;19.60;99.90;;;;;;5093219;28;20036;-61
2021/09/10 05:15:29;;;;;;;35.13;28.52;;;19.60;99.90;;;;;;5093580;28;20047;-60
2021/09/10 05:17:54;;;;;;;38.17;28.30;;;19.60;99.90;;;;;;5094437;28;20124;-61
2021/09/10 05:20:20;;;;;;;32.45;27.70;;;19.60;99.90;;;;;;5094691;28;20040;-60
2021/09/10 05:22:45;;;;;;;34.63;29.05;;;19.60;99.90;;;;;;5094542;28;20481;-60
2021/09/10 05:25:11;;;;;;;35.00;28.85;;;19.60;99.90;;;;;;5094080;28;20512;-60
2021/09/10 05:27:37;;;;;;;36.13;28.02;;;19.60;99.90;;;;;;5094360;28;20111;-61
2021/09/10 05:30:03;;;;;;;40.65;30.83;;;19.60;99.90;;;;;;5094443;28;20046;-61
2021/09/10 05:32:29;;;;;;;38.10;28.90;;;19.60;99.90;;;;;;5094249;28;20071;-60
2021/09/10 05:34:54;;;;;;;41.45;32.15;;;19.60;99.90;;;;;;5094692;28;20098;-60
2021/09/10 05:37:20;;;;;;;32.40;27.90;;;19.60;99.90;;;;;;5094226;28;20075;-60
2021/09/10 05:39:46;;;;;;;35.17;29.02;;;19.50;99.90;;;;;;5094164;28;20046;-60
2021/09/10 05:42:11;;;;;;;37.53;29.35;;;19.50;99.90;;;;;;5093965;28;20512;-60
2021/09/10 05:44:37;;;;;;;35.70;28.60;;;19.50;99.90;;;;;;5093971;28;20549;-60
2021/09/10 05:47:04;;;;;;;40.30;30.25;;;19.50;99.90;;;;;;5093001;28;20039;-60
2021/09/10 05:49:30;;;;;;;33.53;27.85;;;19.50;99.90;;;;;;5094070;28;20135;-60
2021/09/10 05:51:56;;;;;;;33.88;27.67;;;19.50;99.90;;;;;;5093772;28;20497;-60
2021/09/10 05:54:22;;;;;;;36.53;30.77;;;19.40;99.90;;;;;;5092726;28;20032;-61
2021/09/10 05:56:47;;;;;;;39.45;31.92;;;19.40;99.90;;;;;;5093729;28;20040;-60
2021/09/10 05:59:13;;;;;;;40.15;30.48;;;19.40;99.90;;;;;;5093663;28;20039;-60
2021/09/10 06:01:39;;;;;;;36.33;30.85;;;19.40;99.90;;;;;;5093634;28;20040;-60
2021/09/10 06:04:05;;;;;;;37.53;31.48;;;19.40;99.90;;;;;;5093778;28;20393;-60
2021/09/10 06:06:30;;;;;;;41.70;33.35;;;19.40;99.90;;;;;;5092450;28;20097;-61
2021/09/10 06:08:56;;;;;;;41.85;33.75;;;19.40;99.90;;;;;;5093493;28;20040;-60
2021/09/10 06:11:22;;;;;;;41.67;34.75;;;19.40;99.90;;;;;;5093466;28;20039;-60
2021/09/10 06:13:48;;;;;;;37.15;30.52;;;19.40;99.90;;;;;;5093483;28;20044;-61
2021/09/10 06:16:14;;;;;;;39.33;34.05;;;19.40;99.90;;;;;;5093569;28;20044;-60
2021/09/10 06:18:39;;;;;;;38.67;32.40;;;19.40;99.90;;;;;;5093633;28;20472;-60
2021/09/10 06:21:05;;;;;;;43.65;33.80;;;19.40;99.90;;;;;;5093113;28;20128;-60
2021/09/10 06:23:31;;;;;;;45.97;35.45;;;19.40;99.90;;;;;;5093249;28;20044;-61
2021/09/10 06:25:57;;;;;;;49.97;35.92;;;19.40;99.90;;;;;;5093085;28;20497;-61
2021/09/10 06:28:22;;;;;;;47.42;36.30;;;19.30;99.90;;;;;;5093103;28;20032;-60
2021/09/10 06:30:48;;;;;;;43.67;34.42;;;19.40;99.90;;;;;;5093065;28;20062;-61
2021/09/10 06:33:14;;;;;;;45.25;34.45;;;19.30;99.90;;;;;;5092854;28;20042;-61
2021/09/10 06:35:40;;;;;;;46.38;37.75;;;19.30;99.90;;;;;;5091340;28;20464;-60
2021/09/10 06:38:06;;;;;;;43.72;36.08;;;19.40;99.90;;;;;;5093009;28;20065;-60
2021/09/10 06:40:31;;;;;;;43.47;35.30;;;19.40;99.90;;;;;;5092948;28;20077;-61
2021/09/10 06:42:59;;;;;;;41.50;34.45;;;19.40;99.90;;;;;;5092793;28;20040;-61
2021/09/10 06:45:25;;;;;;;45.05;36.00;;;19.50;99.90;;;;;;5092626;28;20036;-60
2021/09/10 06:47:51;;;;;;;43.55;35.42;;;19.50;99.90;;;;;;5091654;28;20121;-60
2021/09/10 06:50:17;;;;;;;46.67;35.22;;;19.60;99.90;;;;;;5092791;28;20051;-60
2021/09/10 06:52:44;;;;;;;43.30;35.38;;;19.70;99.90;;;;;;5092616;28;20040;-60
2021/09/10 06:55:10;;;;;;;42.00;36.03;;;19.80;99.90;;;;;;5092503;28;20572;-60
2021/09/10 06:57:37;;;;;;;45.67;35.15;;;19.80;99.90;;;;;;5092951;28;20072;-60
2021/09/10 07:00:07;;;;;;;45.00;36.45;;;19.90;99.90;;;;;;5092427;28;20044;-61
2021/09/10 07:02:33;;;;;;;42.13;35.70;;;19.90;99.90;;;;;;5092690;28;20444;-61
2021/09/10 07:04:59;;;;;;;42.03;35.60;;;19.90;99.90;;;;;;5092392;28;20135;-60
2021/09/10 07:07:25;;;;;;;42.08;33.55;;;19.90;99.90;;;;;;5092516;28;20036;-60
2021/09/10 07:09:51;;;;;;;43.33;35.03;;;20.00;99.90;;;;;;5092426;28;20067;-60
2021/09/10 07:12:18;;;;;;;41.35;34.92;;;20.00;99.90;;;;;;5092293;28;20032;-60
2021/09/10 07:14:44;;;;;;;44.03;35.58;;;20.10;99.90;;;;;;5092063;28;20039;-60
2021/09/10 07:17:10;;;;;;;44.33;36.35;;;20.10;99.90;;;;;;5092279;28;20044;-61
2021/09/10 07:19:36;;;;;;;45.90;37.47;;;20.10;99.90;;;;;;5092505;28;20048;-60
2021/09/10 07:22:02;;;;;;;45.83;37.63;;;20.10;99.90;;;;;;5092589;28;20395;-60
2021/09/10 07:24:28;;;;;;;43.58;36.45;;;20.00;99.90;;;;;;5092015;28;20485;-61
2021/09/10 07:26:55;;;;;;;42.42;35.72;;;20.10;99.90;;;;;;5092030;28;20048;-61
2021/09/10 07:29:22;;;;;;;43.42;35.92;;;20.10;99.90;;;;;;5090082;28;20123;-60
2021/09/10 07:31:53;;;;;;;43.75;36.95;;;20.20;99.90;;;;;;5092182;28;20044;-60
2021/09/10 07:34:19;;;;;;;40.72;36.15;;;20.20;99.90;;;;;;5092206;28;20032;-60
2021/09/10 07:36:52;;;;;;;46.05;37.20;;;20.30;99.90;;;;;;5092101;28;20118;-60
2021/09/10 07:39:19;;;;;;;41.33;36.75;;;20.30;99.90;;;;;;5091918;28;20482;-60
2021/09/10 07:41:46;;;;;;;44.80;37.17;;;20.30;99.90;;;;;;5091815;28;20069;-60
2021/09/10 07:44:16;;;;;;;44.75;36.97;;;20.30;99.90;;;;;;5091963;28;20036;-61
2021/09/10 07:46:44;;;;;;;42.42;35.50;;;20.30;99.90;;;;;;5091794;28;20500;-60
2021/09/10 07:49:10;;;;;;;43.38;37.58;;;20.30;99.90;;;;;;5091854;28;20438;-61
2021/09/10 07:51:37;;;;;;;44.30;36.17;;;20.40;99.90;;;;;;5091711;28;20470;-60
2021/09/10 07:54:04;;;;;;;46.92;38.90;;;20.40;99.90;;;;;;5091749;28;20036;-61
2021/09/10 07:56:30;;;;;;;47.05;39.22;;;20.50;99.90;;;;;;5091634;28;20043;-61
2021/09/10 07:58:56;;;;;;;49.53;40.05;;;20.50;99.90;;;;;;5091863;28;20413;-60
2021/09/10 08:01:22;;;;;;;47.95;39.75;;;20.60;99.90;;;;;;5091788;28;20397;-60
2021/09/10 08:03:48;;;;;;;49.33;41.05;;;20.60;99.90;;;;;;5091739;28;20035;-60
2021/09/10 08:06:13;;;;;;;52.20;42.25;;;20.70;99.90;;;;;;5091587;28;20086;-61
2021/09/10 08:08:39;;;;;;;48.72;41.05;;;20.70;99.90;;;;;;5092237;28;20039;-62
2021/09/10 08:11:05;;;;;;;55.13;42.10;;;20.70;99.90;;;;;;5095857;28;20111;-60
2021/09/10 08:13:32;;;;;;;53.50;42.13;;;20.80;99.90;;;;;;5095900;28;20032;-60
2021/09/10 08:15:58;;;;;;;55.50;41.35;;;20.80;99.90;;;;;;5095848;28;20047;-61
2021/09/10 08:18:24;;;;;;;54.88;40.97;;;20.90;99.90;;;;;;5095942;28;20040;-60
2021/09/10 08:20:50;;;;;;;49.40;41.05;;;21.00;99.90;;;;;;5095835;28;20115;-60
2021/09/10 08:23:16;;;;;;;54.75;42.75;;;21.00;99.90;;;;;;5095598;28;20076;-60
2021/09/10 08:25:41;;;;;;;53.85;42.33;;;20.90;99.90;;;;;;5095654;28;20055;-60
2021/09/10 08:28:07;;;;;;;53.63;40.97;;;21.00;99.90;;;;;;5095563;28;20040;-60
2021/09/10 08:30:33;;;;;;;55.85;42.75;;;21.00;99.90;;;;;;5095472;28;20040;-60
2021/09/10 08:32:58;;;;;;;54.50;41.83;;;21.00;99.90;;;;;;5095277;28;20032;-60
2021/09/10 08:35:25;;;;;;;55.42;44.40;;;21.00;99.90;;;;;;5095126;28;20036;-60
2021/09/10 08:37:51;;;;;;;54.15;43.88;;;21.00;99.90;;;;;;5095191;28;20424;-60
2021/09/10 08:40:18;;;;;;;55.45;44.55;;;21.00;99.90;;;;;;5095390;28;20123;-61
2021/09/10 08:42:45;;;;;;;55.97;43.38;;;21.10;99.90;;;;;;5095362;28;20036;-61
2021/09/10 08:45:15;;;;;;;57.33;45.20;;;21.10;99.90;;;;;;5095107;28;20044;-61
2021/09/10 08:47:43;;;;;;;62.17;45.42;;;21.00;99.90;;;;;;5095092;28;20040;-61
2021/09/10 08:50:09;;;;;;;61.90;46.37;;;21.00;99.90;;;;;;5095053;28;20106;-60
2021/09/10 08:52:35;;;;;;;55.70;45.03;;;21.00;99.90;;;;;;5094896;28;20313;-60
2021/09/10 08:55:01;;;;;;;58.45;44.88;;;21.00;99.90;;;;;;5095109;28;20072;-61
2021/09/10 08:57:29;;;;;;;60.22;45.75;;;21.00;99.90;;;;;;5095013;28;20500;-61
2021/09/10 09:00:06;;;;;;;59.55;44.95;;;21.00;99.90;;;;;;5094985;28;20120;-60
2021/09/10 09:02:32;;;;;;;57.78;44.35;;;21.00;99.90;;;;;;5095129;28;20039;-61
2021/09/10 09:04:58;;;;;;;57.85;44.58;;;21.00;99.90;;;;;;5094595;28;20504;-60
2021/09/10 09:07:27;;;;;;;54.10;43.58;;;21.00;99.90;;;;;;5094992;28;20043;-61
2021/09/10 09:09:56;;;;;;;54.17;43.45;;;21.00;99.90;;;;;;5095064;28;20044;-60
2021/09/10 09:12:30;;;;;;;54.38;44.78;;;21.10;99.90;;;;;;5094680;28;20043;-61
2021/09/10 09:15:07;;;;;;;52.67;42.55;;;21.10;99.90;;;;;;5094653;28;20043;-60
2021/09/10 09:17:37;;;;;;;51.53;43.63;;;21.10;99.90;;;;;;5094644;28;20076;-61
2021/09/10 09:20:24;;;;;;;54.08;42.38;;;21.10;99.90;;;;;;5092383;28;20044;-60
2021/09/10 09:23:03;;;;;;;54.35;42.67;;;21.10;99.90;;;;;;5094378;28;20047;-61
2021/09/10 09:25:41;;;;;;;53.45;42.67;;;21.10;99.90;;;;;;5094190;28;20131;-61
2021/09/10 09:28:25;;;;;;;58.95;42.40;;;21.20;99.90;;;;;;5094300;28;20100;-61
2021/09/10 09:30:55;;;;;;;61.40;42.97;;;21.20;99.90;;;;;;5094670;28;20052;-61
2021/09/10 09:33:26;;;;;;;56.40;42.88;;;21.20;99.90;;;;;;5094246;28;20551;-61
2021/09/10 09:35:55;;;;;;;57.67;42.88;;;21.20;99.90;;;;;;5094128;28;20048;-61
2021/09/10 09:38:26;;;;;;;54.70;42.13;;;21.20;99.90;;;;;;5094098;28;20058;-61
2021/09/10 09:40:58;;;;;;;53.97;41.85;;;21.20;99.90;;;;;;5093990;28;20048;-61
2021/09/10 09:43:28;;;;;;;52.55;42.08;;;21.20;99.90;;;;;;5094192;28;20560;-60
2021/09/10 09:45:54;;;;;;;54.72;41.85;;;21.20;99.90;;;;;;5094465;28;20394;-60
2021/09/10 09:48:23;;;;;;;55.85;43.85;;;21.20;99.90;;;;;;5094242;28;20147;-60
2021/09/10 09:50:52;;;;;;;52.03;42.20;;;21.20;99.90;;;;;;5093933;28;20401;-61
2021/09/10 09:53:18;;;;;;;60.20;43.80;;;21.20;99.90;;;;;;5093697;28;20040;-61
2021/09/10 09:55:46;;;;;;;58.05;43.80;;;21.20;99.90;;;;;;5093941;28;20040;-61
2021/09/10 09:58:14;;;;;;;62.97;43.42;;;21.20;99.90;;;;;;5093920;28;20405;-61
2021/09/10 10:00:41;;;;;;;60.55;43.33;;;21.20;99.90;;;;;;5093812;28;20044;-61
2021/09/10 10:03:08;;;;;;;57.38;41.70;;;21.20;99.90;;;;;;5093629;28;20044;-61
2021/09/10 10:05:47;;;;;;;61.53;44.50;;;21.20;99.90;;;;;;5093472;28;20040;-61
2021/09/10 10:08:16;;;;;;;60.85;43.55;;;21.20;99.90;;;;;;5093632;28;20040;-60
2021/09/10 10:10:54;;;;;;;60.38;44.95;;;21.20;99.90;;;;;;5093591;28;20036;-61
2021/09/10 10:13:29;;;;;;;62.50;45.17;;;21.20;99.90;;;;;;5093565;28;20044;-61
2021/09/10 10:15:55;;;;;;;60.42;43.67;;;21.20;99.90;;;;;;5093332;28;20371;-61
2021/09/10 10:18:43;;;;;;;57.83;44.22;;;21.20;99.90;;;;;;5093519;28;20051;-62
2021/09/10 10:21:14;;;;;;;60.65;43.58;;;21.20;99.90;;;;;;5093301;28;20085;-62
2021/09/10 10:23:43;;;;;;;58.13;43.40;;;21.20;99.90;;;;;;5093268;28;20401;-61
2021/09/10 10:26:28;;;;;;;63.85;46.40;;;21.20;99.90;;;;;;5093337;28;20048;-62
2021/09/10 10:29:04;;;;;;;66.18;48.15;;;21.30;99.90;;;;;;5093487;28;20035;-62
2021/09/10 10:32:05;;;;;;;60.63;45.30;;;21.30;99.90;;;;;;5093016;28;20103;-61
2021/09/10 10:34:33;;;;;;;62.67;47.03;;;21.30;99.90;;;;;;5092216;28;20101;-62
2021/09/10 10:36:59;;;;;;;65.45;46.83;;;21.40;99.90;;;;;;5093564;28;20075;-61
2021/09/10 10:39:27;;;;;;;62.33;46.38;;;21.40;99.90;;;;;;5093102;28;20036;-62
2021/09/10 10:41:58;;;;;;;65.55;46.40;;;21.50;99.90;;;;;;5093305;28;20039;-62
2021/09/10 10:44:32;;;;;;;65.07;46.38;;;21.50;99.90;;;;;;5092817;28;20040;-61
2021/09/10 10:47:19;;;;;;;62.60;44.95;;;21.50;99.90;;;;;;5092718;28;20046;-62
2021/09/10 10:49:47;;;;;;;63.63;47.22;;;21.50;99.90;;;;;;5092813;28;20123;-62
2021/09/10 10:52:37;;;;;;;63.80;45.63;;;21.50;99.90;;;;;;5092914;28;20051;-62
2021/09/10 10:55:22;;;;;;;58.95;43.85;;;21.60;99.90;;;;;;5092682;28;20494;-61
2021/09/10 10:57:50;;;;;;;56.20;43.25;;;21.60;99.90;;;;;;5092838;28;20073;-62
2021/09/10 11:00:45;;;;;;;65.38;45.47;;;21.60;99.90;;;;;;5092681;28;20044;-61
2021/09/10 11:03:14;;;;;;;60.95;46.10;;;21.60;99.90;;;;;;5092579;28;20101;-61
2021/09/10 11:05:46;;;;;;;63.00;44.95;;;21.60;99.90;;;;;;5092461;28;20040;-61
2021/09/10 11:08:17;;;;;;;59.03;44.70;;;21.60;99.90;;;;;;5092242;28;20402;-61
2021/09/10 11:10:43;;;;;;;61.53;44.15;;;21.60;99.90;;;;;;5092526;28;20042;-62
2021/09/10 11:13:09;;;;;;;56.67;44.42;;;21.70;99.90;;;;;;5092473;28;20044;-62
2021/09/10 11:15:36;;;;;;;57.08;45.28;;;21.70;99.90;;;;;;5092360;28;20046;-62
2021/09/10 11:18:04;;;;;;;58.00;45.40;;;21.80;99.90;;;;;;5092130;28;20044;-62
2021/09/10 11:20:34;;;;;;;53.85;41.05;;;21.90;99.90;;;;;;5092125;28;20043;-62
2021/09/10 11:23:01;;;;;;;49.88;40.72;;;22.00;99.90;;;;;;5092366;28;20058;-61
2021/09/10 11:25:27;;;;;;;53.47;41.85;;;22.10;99.90;;;;;;5091716;28;20131;-61
2021/09/10 11:27:53;;;;;;;46.28;41.05;;;22.20;99.90;;;;;;5091956;28;20169;-62
2021/09/10 11:30:19;;;;;;;49.85;40.80;;;22.30;99.90;;;;;;5092090;28;20040;-61
2021/09/10 11:32:45;;;;;;;45.17;38.20;;;22.40;99.90;;;;;;5091983;28;20359;-61
2021/09/10 11:35:18;;;;;;;45.92;37.65;;;22.50;99.90;;;;;;5091839;28;20040;-63
2021/09/10 11:38:09;;;;;;;44.42;37.47;;;22.60;99.90;;;;;;5092080;28;20040;-62
2021/09/10 11:40:37;;;;;;;45.30;37.05;;;22.70;99.90;;;;;;5092060;28;20047;-62
2021/09/10 11:43:17;;;;;;;42.83;38.10;;;22.80;99.90;;;;;;5090322;28;20052;-62
2021/09/10 11:45:57;;;;;;;42.10;36.85;;;22.80;99.90;;;;;;5091833;28;20044;-62
2021/09/10 11:48:27;;;;;;;40.47;36.15;;;23.00;99.90;;;;;;5092025;28;20500;-62
2021/09/10 11:50:59;;;;;;;41.00;36.58;;;23.00;99.90;;;;;;5091887;28;20036;-61
2021/09/10 11:53:36;;;;;;;40.47;36.20;;;22.90;99.90;;;;;;5091705;28;20508;-62
2021/09/10 11:56:09;;;;;;;40.92;36.58;;;22.90;99.90;;;;;;5091634;28;20510;-62
2021/09/10 11:58:53;;;;;;;41.75;36.28;;;22.90;99.90;;;;;;5091869;28;20055;-62
2021/09/10 12:01:34;;;;;;;38.88;34.70;;;23.00;99.90;;;;;;5091695;28;20048;-61
2021/09/10 12:04:04;;;;;;;38.80;32.97;;;23.10;99.90;;;;;;5091702;28;20054;-62
2021/09/10 12:06:32;;;;;;;38.28;33.90;;;23.10;99.90;;;;;;5091992;28;20048;-62
2021/09/10 12:09:21;;;;;;;36.95;33.08;;;23.20;99.90;;;;;;5091872;28;20115;-61
2021/09/10 12:11:56;;;;;;;35.40;31.63;;;23.20;99.90;;;;;;5091724;28;20079;-61
2021/09/10 12:14:32;;;;;;;38.90;34.53;;;23.20;99.90;;;;;;5091455;28;20044;-62
2021/09/10 12:17:07;;;;;;;37.75;33.80;;;23.30;99.90;;;;;;5091633;28;20032;-62
2021/09/10 12:19:32;;;;;;;37.65;33.47;;;23.20;99.90;;;;;;5091847;28;20071;-62
2021/09/10 12:21:58;;;;;;;40.55;36.03;;;23.20;99.90;;;;;;5092004;28;20913;-61
2021/09/10 12:24:24;;;;;;;38.70;34.63;;;23.20;99.90;;;;;;5091176;28;20498;-62
2021/09/10 12:26:51;;;;;;;37.75;33.65;;;23.20;99.90;;;;;;5091552;28;20051;-62
2021/09/10 12:29:25;;;;;;;40.70;34.13;;;23.30;99.90;;;;;;5091265;28;20062;-62
2021/09/10 12:31:55;;;;;;;37.85;33.95;;;23.40;99.90;;;;;;5091468;28;20521;-61